This is the latest recevied weather packets stored in our database for station/object FW4141. If no packets are shown the sender has not sent any weather packets the latest 10 day(s).
| Time | Temp. | Humidity | Pressure | Rain* | Wind** | Luminosity | Snow |
|---|---|---|---|---|---|---|---|
| 1778203871 | 8.33° C | 89% | 1010 hPa | 0 mm | - | - | - |
| 1778199020 | 8.33° C | 88% | 1010.1 hPa | 0 mm | - | - | - |
| 1778197269 | 8.33° C | 88% | 1010.1 hPa | 0 mm | - | - | - |
| 1778182295 | 8.89° C | 83% | 1009.2 hPa | 0 mm | - | - | - |
| 1778170828 | 10.56° C | 81% | 1007.2 hPa | 0 mm | - | - | - |
| 1778170224 | 10° C | 81% | 1007.3 hPa | 0 mm | - | - | - |
| 1778167266 | 10° C | 83% | 1007.3 hPa | 0 mm | - | - | - |
| 1778166059 | 10° C | 83% | 1007.2 hPa | 0 mm | - | - | - |
| 1778159418 | 10° C | 86% | 1006.9 hPa | 0.25 mm | - | - | - |
| 1778157667 | 10° C | 85% | 1006.6 hPa | 0 mm | - | - | - |
| 1778156462 | 10° C | 85% | 1006.5 hPa | 0 mm | - | - | - |
| 1778155856 | 10° C | 83% | 1006.4 hPa | 0 mm | - | - | - |
| 1778154651 | 10° C | 82% | 1006.5 hPa | 0 mm | - | - | - |
| 1778154045 | 10° C | 81% | 1006.4 hPa | 0 mm | - | - | - |
| 1778149216 | 10° C | 88% | 1005.7 hPa | 0 mm | - | - | - |
| 1778146863 | 9.44° C | 88% | 1005.5 hPa | 0.25 mm | - | - | - |
| 1778143242 | 8.89° C | 87% | 1004.8 hPa | 0.51 mm | - | - | - |
| 1778142638 | 9.44° C | 87% | 1004.7 hPa | 1.02 mm | - | - | - |
| 1778138473 | 8.89° C | 87% | 1003.8 hPa | 0 mm | - | - | - |
| 1778136661 | 8.89° C | 88% | 1003.7 hPa | 0 mm | - | - | - |
| 1778134248 | 8.89° C | 87% | 1003.3 hPa | 0.25 mm | - | - | - |
| 1778131833 | 8.33° C | 86% | 1003 hPa | 0.51 mm | - | - | - |
| 1778130647 | 8.33° C | 85% | 1002.9 hPa | 0.25 mm | - | - | - |
| 1778126460 | 8.89° C | 82% | 1002.6 hPa | 0 mm | - | - | - |
| 1778122839 | 9.44° C | 82% | 1001.8 hPa | 0 mm | - | - | - |
* Rain latest hour (hover to see other rain measurements)
** Current wind speed in m/s (hover to see current wind gust speed)